sensor_id;sensor_type;location;lat;lon;timestamp;P1;durP1;ratioP1;P2;durP2;ratioP2
23614;SDS011;11985;49.404;7.734;2023-03-05T00:01:54;20.17;;;7.90;;
23614;SDS011;11985;49.404;7.734;2023-03-05T00:06:57;21.88;;;8.00;;
23614;SDS011;11985;49.404;7.734;2023-03-05T00:11:58;25.08;;;8.55;;
23614;SDS011;11985;49.404;7.734;2023-03-05T00:17:00;22.33;;;8.98;;
23614;SDS011;11985;49.404;7.734;2023-03-05T00:22:03;21.75;;;8.40;;
23614;SDS011;11985;49.404;7.734;2023-03-05T00:27:04;22.80;;;8.18;;
23614;SDS011;11985;49.404;7.734;2023-03-05T00:32:06;25.60;;;9.05;;
23614;SDS011;11985;49.404;7.734;2023-03-05T00:37:09;27.23;;;9.23;;
23614;SDS011;11985;49.404;7.734;2023-03-05T00:42:10;25.70;;;9.60;;
23614;SDS011;11985;49.404;7.734;2023-03-05T00:47:12;20.38;;;8.75;;
23614;SDS011;11985;49.404;7.734;2023-03-05T00:57:20;19.92;;;7.85;;
23614;SDS011;11985;49.404;7.734;2023-03-05T01:02:21;27.27;;;8.65;;
23614;SDS011;11985;49.404;7.734;2023-03-05T01:07:24;22.10;;;7.63;;
23614;SDS011;11985;49.404;7.734;2023-03-05T01:12:26;15.70;;;7.10;;
23614;SDS011;11985;49.404;7.734;2023-03-05T01:17:27;23.52;;;7.72;;
23614;SDS011;11985;49.404;7.734;2023-03-05T01:22:30;17.00;;;7.30;;
23614;SDS011;11985;49.404;7.734;2023-03-05T01:27:32;19.67;;;8.32;;
23614;SDS011;11985;49.404;7.734;2023-03-05T01:32:34;22.67;;;7.65;;
23614;SDS011;11985;49.404;7.734;2023-03-05T01:37:37;15.77;;;7.95;;
23614;SDS011;11985;49.404;7.734;2023-03-05T01:42:39;21.88;;;8.05;;
23614;SDS011;11985;49.404;7.734;2023-03-05T01:47:40;22.55;;;8.02;;
23614;SDS011;11985;49.404;7.734;2023-03-05T01:52:44;20.33;;;7.95;;
23614;SDS011;11985;49.404;7.734;2023-03-05T01:57:50;18.27;;;7.47;;
23614;SDS011;11985;49.404;7.734;2023-03-05T02:02:55;20.20;;;8.52;;
23614;SDS011;11985;49.404;7.734;2023-03-05T02:08:04;14.20;;;6.57;;
23614;SDS011;11985;49.404;7.734;2023-03-05T02:13:08;16.83;;;7.47;;
23614;SDS011;11985;49.404;7.734;2023-03-05T02:18:12;17.03;;;8.10;;
23614;SDS011;11985;49.404;7.734;2023-03-05T02:23:15;19.02;;;6.75;;
23614;SDS011;11985;49.404;7.734;2023-03-05T02:28:19;19.30;;;7.07;;
23614;SDS011;11985;49.404;7.734;2023-03-05T02:33:26;16.67;;;6.90;;
23614;SDS011;11985;49.404;7.734;2023-03-05T02:38:28;16.30;;;7.50;;
23614;SDS011;11985;49.404;7.734;2023-03-05T02:43:30;21.83;;;7.25;;
23614;SDS011;11985;49.404;7.734;2023-03-05T02:48:32;17.08;;;7.35;;
23614;SDS011;11985;49.404;7.734;2023-03-05T02:53:35;14.77;;;7.32;;
23614;SDS011;11985;49.404;7.734;2023-03-05T02:58:36;17.02;;;7.75;;
23614;SDS011;11985;49.404;7.734;2023-03-05T03:03:38;16.75;;;7.18;;
23614;SDS011;11985;49.404;7.734;2023-03-05T03:08:42;18.42;;;6.90;;
23614;SDS011;11985;49.404;7.734;2023-03-05T03:13:43;19.00;;;6.70;;
23614;SDS011;11985;49.404;7.734;2023-03-05T03:18:45;15.20;;;6.57;;
23614;SDS011;11985;49.404;7.734;2023-03-05T03:23:49;14.57;;;6.60;;
23614;SDS011;11985;49.404;7.734;2023-03-05T03:28:50;17.33;;;6.93;;
23614;SDS011;11985;49.404;7.734;2023-03-05T03:33:52;15.40;;;6.85;;
23614;SDS011;11985;49.404;7.734;2023-03-05T03:38:55;15.88;;;6.80;;
23614;SDS011;11985;49.404;7.734;2023-03-05T03:43:57;20.52;;;7.53;;
23614;SDS011;11985;49.404;7.734;2023-03-05T03:48:59;21.02;;;7.18;;
23614;SDS011;11985;49.404;7.734;2023-03-05T03:54:01;17.60;;;6.80;;
23614;SDS011;11985;49.404;7.734;2023-03-05T03:59:03;17.08;;;6.75;;
23614;SDS011;11985;49.404;7.734;2023-03-05T04:04:05;19.48;;;7.57;;
23614;SDS011;11985;49.404;7.734;2023-03-05T04:09:09;18.88;;;6.78;;
23614;SDS011;11985;49.404;7.734;2023-03-05T04:14:10;17.23;;;7.32;;
23614;SDS011;11985;49.404;7.734;2023-03-05T04:19:12;20.48;;;7.85;;
23614;SDS011;11985;49.404;7.734;2023-03-05T04:24:15;20.75;;;7.40;;
23614;SDS011;11985;49.404;7.734;2023-03-05T04:29:16;24.08;;;8.13;;
23614;SDS011;11985;49.404;7.734;2023-03-05T04:34:18;18.13;;;7.43;;
23614;SDS011;11985;49.404;7.734;2023-03-05T04:39:21;21.00;;;8.65;;
23614;SDS011;11985;49.404;7.734;2023-03-05T04:44:23;22.02;;;9.10;;
23614;SDS011;11985;49.404;7.734;2023-03-05T04:49:25;15.07;;;7.72;;
23614;SDS011;11985;49.404;7.734;2023-03-05T04:54:27;24.95;;;8.80;;
23614;SDS011;11985;49.404;7.734;2023-03-05T04:59:29;20.80;;;9.48;;
23614;SDS011;11985;49.404;7.734;2023-03-05T05:04:30;25.48;;;10.45;;
23614;SDS011;11985;49.404;7.734;2023-03-05T05:09:33;18.88;;;9.30;;
23614;SDS011;11985;49.404;7.734;2023-03-05T05:14:35;19.90;;;9.60;;
23614;SDS011;11985;49.404;7.734;2023-03-05T05:19:37;19.48;;;8.93;;
23614;SDS011;11985;49.404;7.734;2023-03-05T05:24:40;32.28;;;10.00;;
23614;SDS011;11985;49.404;7.734;2023-03-05T05:29:41;19.85;;;8.60;;
23614;SDS011;11985;49.404;7.734;2023-03-05T05:34:44;18.30;;;9.18;;
23614;SDS011;11985;49.404;7.734;2023-03-05T05:39:47;20.25;;;9.23;;
23614;SDS011;11985;49.404;7.734;2023-03-05T05:44:49;23.92;;;8.95;;
23614;SDS011;11985;49.404;7.734;2023-03-05T05:49:51;18.50;;;8.30;;
23614;SDS011;11985;49.404;7.734;2023-03-05T05:54:54;20.17;;;9.27;;
23614;SDS011;11985;49.404;7.734;2023-03-05T05:59:55;19.42;;;8.23;;
23614;SDS011;11985;49.404;7.734;2023-03-05T06:04:56;21.20;;;9.30;;
23614;SDS011;11985;49.404;7.734;2023-03-05T06:09:59;21.60;;;8.55;;
23614;SDS011;11985;49.404;7.734;2023-03-05T06:15:02;16.08;;;7.45;;
23614;SDS011;11985;49.404;7.734;2023-03-05T06:20:04;16.13;;;7.30;;
23614;SDS011;11985;49.404;7.734;2023-03-05T06:25:08;20.80;;;7.18;;
23614;SDS011;11985;49.404;7.734;2023-03-05T06:30:10;14.70;;;6.72;;
23614;SDS011;11985;49.404;7.734;2023-03-05T06:35:13;19.23;;;7.38;;
23614;SDS011;11985;49.404;7.734;2023-03-05T06:40:16;17.83;;;7.70;;
23614;SDS011;11985;49.404;7.734;2023-03-05T06:45:17;19.48;;;7.57;;
23614;SDS011;11985;49.404;7.734;2023-03-05T06:50:19;21.73;;;9.18;;
23614;SDS011;11985;49.404;7.734;2023-03-05T06:55:22;16.13;;;7.55;;
23614;SDS011;11985;49.404;7.734;2023-03-05T07:00:23;23.83;;;8.55;;
23614;SDS011;11985;49.404;7.734;2023-03-05T07:05:28;23.38;;;8.20;;
23614;SDS011;11985;49.404;7.734;2023-03-05T07:10:31;21.25;;;8.18;;
23614;SDS011;11985;49.404;7.734;2023-03-05T07:15:37;19.40;;;8.55;;
23614;SDS011;11985;49.404;7.734;2023-03-05T07:20:39;17.42;;;7.25;;
23614;SDS011;11985;49.404;7.734;2023-03-05T07:25:42;17.60;;;7.05;;
23614;SDS011;11985;49.404;7.734;2023-03-05T07:30:44;19.02;;;6.90;;
23614;SDS011;11985;49.404;7.734;2023-03-05T07:35:45;12.13;;;5.70;;
23614;SDS011;11985;49.404;7.734;2023-03-05T07:40:48;15.00;;;6.55;;
23614;SDS011;11985;49.404;7.734;2023-03-05T07:45:50;12.48;;;5.88;;
23614;SDS011;11985;49.404;7.734;2023-03-05T07:50:58;13.75;;;6.32;;
23614;SDS011;11985;49.404;7.734;2023-03-05T07:56:02;10.98;;;5.72;;
23614;SDS011;11985;49.404;7.734;2023-03-05T08:01:09;18.10;;;5.97;;
23614;SDS011;11985;49.404;7.734;2023-03-05T08:06:13;18.50;;;5.97;;
23614;SDS011;11985;49.404;7.734;2023-03-05T08:11:16;10.50;;;5.30;;
23614;SDS011;11985;49.404;7.734;2023-03-05T08:16:18;14.45;;;5.70;;
23614;SDS011;11985;49.404;7.734;2023-03-05T08:21:22;17.15;;;6.05;;
23614;SDS011;11985;49.404;7.734;2023-03-05T08:26:27;11.90;;;5.30;;
23614;SDS011;11985;49.404;7.734;2023-03-05T08:31:30;21.60;;;6.13;;
23614;SDS011;11985;49.404;7.734;2023-03-05T08:36:33;14.80;;;6.40;;
23614;SDS011;11985;49.404;7.734;2023-03-05T08:41:36;21.63;;;7.80;;
23614;SDS011;11985;49.404;7.734;2023-03-05T08:46:37;17.48;;;6.13;;
23614;SDS011;11985;49.404;7.734;2023-03-05T08:51:39;15.40;;;6.10;;
23614;SDS011;11985;49.404;7.734;2023-03-05T08:56:42;13.50;;;4.53;;
23614;SDS011;11985;49.404;7.734;2023-03-05T09:01:45;26.67;;;10.48;;
23614;SDS011;11985;49.404;7.734;2023-03-05T09:06:46;15.38;;;5.97;;
23614;SDS011;11985;49.404;7.734;2023-03-05T09:11:50;11.80;;;5.53;;
23614;SDS011;11985;49.404;7.734;2023-03-05T09:16:52;5.03;;;2.53;;
23614;SDS011;11985;49.404;7.734;2023-03-05T09:21:53;7.82;;;3.90;;
23614;SDS011;11985;49.404;7.734;2023-03-05T09:26:58;6.28;;;3.63;;
23614;SDS011;11985;49.404;7.734;2023-03-05T09:31:59;9.10;;;3.53;;
23614;SDS011;11985;49.404;7.734;2023-03-05T09:37:01;8.63;;;3.30;;
23614;SDS011;11985;49.404;7.734;2023-03-05T09:42:10;12.25;;;3.78;;
23614;SDS011;11985;49.404;7.734;2023-03-05T09:47:38;7.75;;;3.55;;
23614;SDS011;11985;49.404;7.734;2023-03-05T09:52:57;7.82;;;3.30;;
23614;SDS011;11985;49.404;7.734;2023-03-05T09:58:06;10.57;;;3.20;;
23614;SDS011;11985;49.404;7.734;2023-03-05T10:03:15;7.13;;;3.08;;
23614;SDS011;11985;49.404;7.734;2023-03-05T10:08:22;10.90;;;3.53;;
23614;SDS011;11985;49.404;7.734;2023-03-05T10:13:33;7.85;;;3.30;;
23614;SDS011;11985;49.404;7.734;2023-03-05T10:18:39;7.55;;;3.28;;
23614;SDS011;11985;49.404;7.734;2023-03-05T10:23:51;13.20;;;3.13;;
23614;SDS011;11985;49.404;7.734;2023-03-05T10:29:05;8.33;;;3.70;;
23614;SDS011;11985;49.404;7.734;2023-03-05T10:34:28;10.88;;;5.18;;
23614;SDS011;11985;49.404;7.734;2023-03-05T10:45:13;10.32;;;3.90;;
23614;SDS011;11985;49.404;7.734;2023-03-05T10:50:17;8.00;;;4.40;;
23614;SDS011;11985;49.404;7.734;2023-03-05T10:55:21;7.77;;;3.60;;
23614;SDS011;11985;49.404;7.734;2023-03-05T11:00:25;5.50;;;3.05;;
23614;SDS011;11985;49.404;7.734;2023-03-05T11:10:46;5.63;;;2.53;;
23614;SDS011;11985;49.404;7.734;2023-03-05T11:15:54;6.78;;;2.95;;
23614;SDS011;11985;49.404;7.734;2023-03-05T11:21:07;5.03;;;2.42;;
23614;SDS011;11985;49.404;7.734;2023-03-05T11:26:17;4.72;;;2.67;;
23614;SDS011;11985;49.404;7.734;2023-03-05T11:31:24;10.25;;;5.40;;
23614;SDS011;11985;49.404;7.734;2023-03-05T11:36:27;7.53;;;4.13;;
23614;SDS011;11985;49.404;7.734;2023-03-05T11:41:31;6.15;;;3.67;;
23614;SDS011;11985;49.404;7.734;2023-03-05T11:46:37;7.50;;;3.83;;
23614;SDS011;11985;49.404;7.734;2023-03-05T11:51:44;7.65;;;3.30;;
23614;SDS011;11985;49.404;7.734;2023-03-05T11:56:53;8.25;;;4.25;;
23614;SDS011;11985;49.404;7.734;2023-03-05T12:01:56;9.02;;;3.97;;
23614;SDS011;11985;49.404;7.734;2023-03-05T12:06:59;7.35;;;3.63;;
23614;SDS011;11985;49.404;7.734;2023-03-05T12:12:04;11.82;;;4.68;;
23614;SDS011;11985;49.404;7.734;2023-03-05T12:17:15;9.02;;;4.25;;
23614;SDS011;11985;49.404;7.734;2023-03-05T12:22:22;8.73;;;4.65;;
23614;SDS011;11985;49.404;7.734;2023-03-05T12:27:32;7.40;;;3.80;;
23614;SDS011;11985;49.404;7.734;2023-03-05T12:38:02;5.38;;;3.20;;
23614;SDS011;11985;49.404;7.734;2023-03-05T12:43:27;7.80;;;4.05;;
23614;SDS011;11985;49.404;7.734;2023-03-05T12:48:42;8.98;;;4.53;;
23614;SDS011;11985;49.404;7.734;2023-03-05T12:53:44;7.50;;;4.22;;
23614;SDS011;11985;49.404;7.734;2023-03-05T12:58:50;9.65;;;5.40;;
23614;SDS011;11985;49.404;7.734;2023-03-05T13:03:59;10.55;;;4.88;;
23614;SDS011;11985;49.404;7.734;2023-03-05T13:09:14;12.93;;;5.50;;
23614;SDS011;11985;49.404;7.734;2023-03-05T13:14:25;9.00;;;5.18;;
23614;SDS011;11985;49.404;7.734;2023-03-05T13:19:32;17.42;;;6.80;;
23614;SDS011;11985;49.404;7.734;2023-03-05T13:24:35;13.90;;;5.07;;
23614;SDS011;11985;49.404;7.734;2023-03-05T13:29:48;8.50;;;4.40;;
23614;SDS011;11985;49.404;7.734;2023-03-05T13:34:52;7.72;;;4.78;;
23614;SDS011;11985;49.404;7.734;2023-03-05T13:44:59;10.90;;;4.30;;
23614;SDS011;11985;49.404;7.734;2023-03-05T13:50:04;9.23;;;4.90;;
23614;SDS011;11985;49.404;7.734;2023-03-05T13:55:22;8.57;;;3.97;;
23614;SDS011;11985;49.404;7.734;2023-03-05T14:00:25;8.50;;;4.10;;
23614;SDS011;11985;49.404;7.734;2023-03-05T14:05:31;14.45;;;4.57;;
23614;SDS011;11985;49.404;7.734;2023-03-05T14:10:33;8.63;;;4.53;;
23614;SDS011;11985;49.404;7.734;2023-03-05T14:15:37;9.07;;;4.70;;
23614;SDS011;11985;49.404;7.734;2023-03-05T14:20:40;12.57;;;4.72;;
23614;SDS011;11985;49.404;7.734;2023-03-05T14:31:33;11.55;;;4.95;;
23614;SDS011;11985;49.404;7.734;2023-03-05T14:36:40;13.38;;;7.35;;
23614;SDS011;11985;49.404;7.734;2023-03-05T14:41:47;13.93;;;4.88;;
23614;SDS011;11985;49.404;7.734;2023-03-05T14:46:49;8.02;;;4.05;;
23614;SDS011;11985;49.404;7.734;2023-03-05T14:51:52;11.00;;;4.28;;
23614;SDS011;11985;49.404;7.734;2023-03-05T14:56:54;7.90;;;4.28;;
23614;SDS011;11985;49.404;7.734;2023-03-05T15:01:55;7.38;;;3.70;;
23614;SDS011;11985;49.404;7.734;2023-03-05T15:06:59;7.85;;;4.28;;
23614;SDS011;11985;49.404;7.734;2023-03-05T15:12:00;5.95;;;3.72;;
23614;SDS011;11985;49.404;7.734;2023-03-05T15:17:02;7.88;;;4.55;;
23614;SDS011;11985;49.404;7.734;2023-03-05T15:22:05;18.58;;;7.78;;
23614;SDS011;11985;49.404;7.734;2023-03-05T15:27:09;5.53;;;3.55;;
23614;SDS011;11985;49.404;7.734;2023-03-05T15:32:11;8.32;;;4.00;;
23614;SDS011;11985;49.404;7.734;2023-03-05T15:37:14;6.22;;;3.53;;
23614;SDS011;11985;49.404;7.734;2023-03-05T15:42:16;7.38;;;3.63;;
23614;SDS011;11985;49.404;7.734;2023-03-05T15:47:18;7.75;;;3.40;;
23614;SDS011;11985;49.404;7.734;2023-03-05T15:52:21;6.32;;;3.17;;
23614;SDS011;11985;49.404;7.734;2023-03-05T15:57:22;7.35;;;3.47;;
23614;SDS011;11985;49.404;7.734;2023-03-05T16:02:24;7.40;;;4.10;;
23614;SDS011;11985;49.404;7.734;2023-03-05T16:07:27;20.35;;;8.77;;
23614;SDS011;11985;49.404;7.734;2023-03-05T16:12:30;10.85;;;4.80;;
23614;SDS011;11985;49.404;7.734;2023-03-05T16:17:39;16.92;;;6.07;;
23614;SDS011;11985;49.404;7.734;2023-03-05T16:22:44;7.32;;;3.88;;
23614;SDS011;11985;49.404;7.734;2023-03-05T16:27:46;6.10;;;3.20;;
23614;SDS011;11985;49.404;7.734;2023-03-05T16:32:48;4.75;;;3.10;;
23614;SDS011;11985;49.404;7.734;2023-03-05T16:37:51;6.30;;;3.50;;
23614;SDS011;11985;49.404;7.734;2023-03-05T16:42:52;5.18;;;3.40;;
23614;SDS011;11985;49.404;7.734;2023-03-05T16:47:54;5.22;;;3.35;;
23614;SDS011;11985;49.404;7.734;2023-03-05T16:52:57;6.25;;;3.33;;
23614;SDS011;11985;49.404;7.734;2023-03-05T16:57:59;8.35;;;3.42;;
23614;SDS011;11985;49.404;7.734;2023-03-05T17:03:00;6.35;;;3.88;;
23614;SDS011;11985;49.404;7.734;2023-03-05T17:08:04;5.13;;;3.10;;
23614;SDS011;11985;49.404;7.734;2023-03-05T17:13:07;8.73;;;3.33;;
23614;SDS011;11985;49.404;7.734;2023-03-05T17:18:09;13.02;;;4.63;;
23614;SDS011;11985;49.404;7.734;2023-03-05T17:23:12;7.40;;;4.22;;
23614;SDS011;11985;49.404;7.734;2023-03-05T17:28:13;8.02;;;4.10;;
23614;SDS011;11985;49.404;7.734;2023-03-05T17:33:15;6.82;;;3.80;;
23614;SDS011;11985;49.404;7.734;2023-03-05T17:38:18;7.53;;;4.60;;
23614;SDS011;11985;49.404;7.734;2023-03-05T17:43:20;8.77;;;3.55;;
23614;SDS011;11985;49.404;7.734;2023-03-05T17:48:21;5.65;;;3.50;;
23614;SDS011;11985;49.404;7.734;2023-03-05T17:53:24;4.57;;;2.30;;
23614;SDS011;11985;49.404;7.734;2023-03-05T17:58:26;4.72;;;2.75;;
23614;SDS011;11985;49.404;7.734;2023-03-05T18:03:28;7.90;;;2.85;;
23614;SDS011;11985;49.404;7.734;2023-03-05T18:08:31;8.65;;;3.03;;
23614;SDS011;11985;49.404;7.734;2023-03-05T18:13:32;6.43;;;3.42;;
23614;SDS011;11985;49.404;7.734;2023-03-05T18:18:34;10.32;;;4.40;;
23614;SDS011;11985;49.404;7.734;2023-03-05T18:23:37;9.00;;;3.58;;
23614;SDS011;11985;49.404;7.734;2023-03-05T18:28:39;6.65;;;4.20;;
23614;SDS011;11985;49.404;7.734;2023-03-05T18:33:41;9.27;;;4.30;;
23614;SDS011;11985;49.404;7.734;2023-03-05T18:38:44;5.65;;;3.90;;
23614;SDS011;11985;49.404;7.734;2023-03-05T18:43:45;13.50;;;5.90;;
23614;SDS011;11985;49.404;7.734;2023-03-05T18:48:47;18.02;;;9.60;;
23614;SDS011;11985;49.404;7.734;2023-03-05T18:53:50;15.80;;;8.50;;
23614;SDS011;11985;49.404;7.734;2023-03-05T19:03:55;12.60;;;6.75;;
23614;SDS011;11985;49.404;7.734;2023-03-05T19:08:59;12.43;;;6.57;;
23614;SDS011;11985;49.404;7.734;2023-03-05T19:14:07;16.55;;;7.70;;
23614;SDS011;11985;49.404;7.734;2023-03-05T19:19:09;14.40;;;6.82;;
23614;SDS011;11985;49.404;7.734;2023-03-05T19:24:16;14.80;;;7.50;;
23614;SDS011;11985;49.404;7.734;2023-03-05T19:29:18;11.98;;;7.20;;
23614;SDS011;11985;49.404;7.734;2023-03-05T19:34:19;15.05;;;6.90;;
23614;SDS011;11985;49.404;7.734;2023-03-05T19:39:23;14.90;;;8.07;;
23614;SDS011;11985;49.404;7.734;2023-03-05T19:44:24;18.25;;;8.60;;
23614;SDS011;11985;49.404;7.734;2023-03-05T19:49:26;19.40;;;6.70;;
23614;SDS011;11985;49.404;7.734;2023-03-05T19:54:29;16.33;;;8.50;;
23614;SDS011;11985;49.404;7.734;2023-03-05T19:59:30;17.13;;;8.43;;
23614;SDS011;11985;49.404;7.734;2023-03-05T20:04:32;15.48;;;9.20;;
23614;SDS011;11985;49.404;7.734;2023-03-05T20:09:35;22.80;;;8.98;;
23614;SDS011;11985;49.404;7.734;2023-03-05T20:14:37;12.75;;;7.65;;
23614;SDS011;11985;49.404;7.734;2023-03-05T20:19:38;20.27;;;8.05;;
23614;SDS011;11985;49.404;7.734;2023-03-05T20:24:41;11.85;;;6.90;;
23614;SDS011;11985;49.404;7.734;2023-03-05T20:29:42;15.27;;;6.72;;
23614;SDS011;11985;49.404;7.734;2023-03-05T20:34:44;12.73;;;6.80;;
23614;SDS011;11985;49.404;7.734;2023-03-05T20:39:47;13.40;;;6.78;;
23614;SDS011;11985;49.404;7.734;2023-03-05T20:44:51;12.10;;;7.18;;
23614;SDS011;11985;49.404;7.734;2023-03-05T20:49:53;11.50;;;6.30;;
23614;SDS011;11985;49.404;7.734;2023-03-05T20:54:56;15.38;;;8.40;;
23614;SDS011;11985;49.404;7.734;2023-03-05T20:59:59;15.93;;;9.10;;
23614;SDS011;11985;49.404;7.734;2023-03-05T21:05:02;19.30;;;8.82;;
23614;SDS011;11985;49.404;7.734;2023-03-05T21:10:06;15.98;;;8.10;;
23614;SDS011;11985;49.404;7.734;2023-03-05T21:15:08;17.42;;;8.25;;
23614;SDS011;11985;49.404;7.734;2023-03-05T21:20:11;16.77;;;7.57;;
23614;SDS011;11985;49.404;7.734;2023-03-05T21:25:15;16.10;;;7.35;;
23614;SDS011;11985;49.404;7.734;2023-03-05T21:30:21;15.13;;;7.70;;
23614;SDS011;11985;49.404;7.734;2023-03-05T21:35:23;17.08;;;7.47;;
23614;SDS011;11985;49.404;7.734;2023-03-05T21:40:27;13.82;;;7.18;;
23614;SDS011;11985;49.404;7.734;2023-03-05T21:45:29;14.13;;;6.82;;
23614;SDS011;11985;49.404;7.734;2023-03-05T21:50:31;11.30;;;6.47;;
23614;SDS011;11985;49.404;7.734;2023-03-05T21:55:36;15.55;;;6.75;;
23614;SDS011;11985;49.404;7.734;2023-03-05T22:00:45;17.08;;;7.28;;
23614;SDS011;11985;49.404;7.734;2023-03-05T22:05:47;13.65;;;6.90;;
23614;SDS011;11985;49.404;7.734;2023-03-05T22:10:50;12.43;;;6.90;;
23614;SDS011;11985;49.404;7.734;2023-03-05T22:15:53;12.40;;;5.82;;
23614;SDS011;11985;49.404;7.734;2023-03-05T22:20:56;13.55;;;6.90;;
23614;SDS011;11985;49.404;7.734;2023-03-05T22:26:01;16.08;;;7.07;;
23614;SDS011;11985;49.404;7.734;2023-03-05T22:31:04;13.75;;;5.95;;
23614;SDS011;11985;49.404;7.734;2023-03-05T22:36:06;15.50;;;6.65;;
23614;SDS011;11985;49.404;7.734;2023-03-05T22:41:10;16.42;;;6.70;;
23614;SDS011;11985;49.404;7.734;2023-03-05T22:51:16;13.98;;;7.00;;
23614;SDS011;11985;49.404;7.734;2023-03-05T22:56:20;16.52;;;6.82;;
23614;SDS011;11985;49.404;7.734;2023-03-05T23:01:22;12.93;;;6.55;;
23614;SDS011;11985;49.404;7.734;2023-03-05T23:06:26;14.55;;;6.82;;
23614;SDS011;11985;49.404;7.734;2023-03-05T23:11:29;10.65;;;6.72;;
23614;SDS011;11985;49.404;7.734;2023-03-05T23:16:30;12.18;;;6.22;;
23614;SDS011;11985;49.404;7.734;2023-03-05T23:21:32;13.10;;;7.30;;
23614;SDS011;11985;49.404;7.734;2023-03-05T23:26:35;12.32;;;6.57;;
23614;SDS011;11985;49.404;7.734;2023-03-05T23:31:36;15.68;;;6.40;;
23614;SDS011;11985;49.404;7.734;2023-03-05T23:36:38;13.10;;;7.13;;
23614;SDS011;11985;49.404;7.734;2023-03-05T23:41:42;17.42;;;7.53;;
23614;SDS011;11985;49.404;7.734;2023-03-05T23:46:44;14.85;;;7.82;;
23614;SDS011;11985;49.404;7.734;2023-03-05T23:51:45;15.68;;;7.85;;
23614;SDS011;11985;49.404;7.734;2023-03-05T23:56:48;14.40;;;7.05;;
